createdAt,value
2018-10-11T00:01:00.289Z,13.30
2018-10-11T00:03:29.669Z,13.30
2018-10-11T00:05:59.056Z,13.30
2018-10-11T00:08:28.426Z,13.30
2018-10-11T00:10:57.793Z,13.20
2018-10-11T00:13:27.178Z,13.20
2018-10-11T00:15:56.528Z,13.20
2018-10-11T00:18:25.920Z,13.20
2018-10-11T00:20:55.276Z,13.10
2018-10-11T00:23:24.597Z,13.10
2018-10-11T00:25:54.046Z,13.10
2018-10-11T00:28:23.415Z,13.00
2018-10-11T00:30:52.828Z,13.00
2018-10-11T00:33:22.193Z,12.90
2018-10-11T00:35:51.557Z,13.00
2018-10-11T00:38:20.894Z,13.00
2018-10-11T00:40:50.261Z,13.00
2018-10-11T00:43:19.611Z,13.00
2018-10-11T00:45:49.000Z,12.90
2018-10-11T00:48:18.333Z,12.90
2018-10-11T00:50:47.696Z,12.80
2018-10-11T00:53:17.112Z,12.90
2018-10-11T00:55:46.498Z,12.90
2018-10-11T00:58:15.856Z,12.90
2018-10-11T01:00:45.213Z,12.90
2018-10-11T01:03:14.665Z,12.80
2018-10-11T01:05:44.012Z,12.80
2018-10-11T01:08:13.390Z,12.70
2018-10-11T01:10:42.746Z,12.70
2018-10-11T01:13:12.122Z,12.70
2018-10-11T01:15:41.484Z,12.70
2018-10-11T01:18:10.844Z,12.60
2018-10-11T01:20:40.229Z,12.60
2018-10-11T01:23:09.585Z,12.60
2018-10-11T01:25:38.930Z,12.60
2018-10-11T01:28:08.273Z,12.50
2018-10-11T01:30:37.666Z,12.60
2018-10-11T01:33:07.063Z,12.60
2018-10-11T01:35:36.410Z,12.70
2018-10-11T01:38:05.729Z,12.60
2018-10-11T01:40:35.062Z,12.60
2018-10-11T01:43:05.585Z,12.50
2018-10-11T01:45:35.471Z,12.50
2018-10-11T01:48:04.833Z,12.60
2018-10-11T01:50:34.211Z,12.50
2018-10-11T01:53:05.246Z,12.50
2018-10-11T01:55:34.639Z,12.50
2018-10-11T01:58:04.033Z,12.10
2018-10-11T02:00:33.360Z,12.00
2018-10-11T02:03:02.737Z,12.10
2018-10-11T02:05:32.114Z,12.20
2018-10-11T02:08:01.501Z,12.20
2018-10-11T02:10:30.849Z,12.30
2018-10-11T02:13:00.249Z,12.30
2018-10-11T02:15:29.597Z,12.30
2018-10-11T02:17:59.045Z,12.30
2018-10-11T02:20:28.859Z,12.30
2018-10-11T02:22:58.438Z,12.40
2018-10-11T02:25:27.822Z,12.40
2018-10-11T02:27:57.196Z,12.50
2018-10-11T02:30:26.611Z,12.40
2018-10-11T02:32:55.986Z,12.40
2018-10-11T02:35:25.342Z,12.40
2018-10-11T02:37:54.642Z,12.30
2018-10-11T02:40:23.988Z,12.30
2018-10-11T02:42:53.317Z,12.30
2018-10-11T02:45:22.649Z,12.30
2018-10-11T02:47:51.973Z,12.40
2018-10-11T02:50:21.372Z,12.40
2018-10-11T02:52:50.707Z,12.40
2018-10-11T02:55:21.935Z,12.50
2018-10-11T02:58:02.961Z,12.60
2018-10-11T03:00:33.289Z,12.60
2018-10-11T03:03:05.629Z,12.50
2018-10-11T03:05:37.655Z,12.50
2018-10-11T03:08:08.666Z,12.50
2018-10-11T03:10:38.057Z,12.50
2018-10-11T03:13:09.793Z,12.50
2018-10-11T03:15:39.362Z,12.50
2018-10-11T03:18:08.723Z,12.50
2018-10-11T03:20:38.139Z,12.50
2018-10-11T03:23:07.514Z,12.50
2018-10-11T03:25:36.894Z,12.40
2018-10-11T03:28:06.271Z,12.40
2018-10-11T03:30:35.618Z,12.50
2018-10-11T03:33:04.972Z,12.50
2018-10-11T03:35:34.279Z,12.40
2018-10-11T03:38:03.650Z,12.40
2018-10-11T03:40:32.999Z,12.30
2018-10-11T03:43:02.352Z,12.40
2018-10-11T03:45:31.712Z,12.40
2018-10-11T03:48:01.071Z,12.40
2018-10-11T03:50:30.408Z,12.40
2018-10-11T03:52:59.807Z,12.40
2018-10-11T03:55:29.154Z,12.50
2018-10-11T03:57:58.482Z,12.50
2018-10-11T04:00:27.913Z,12.40
2018-10-11T04:02:57.269Z,12.30
2018-10-11T04:05:26.529Z,12.40
2018-10-11T04:07:55.965Z,12.40
2018-10-11T04:10:25.341Z,12.40
2018-10-11T04:12:54.720Z,12.40
2018-10-11T04:15:24.554Z,12.40
2018-10-11T04:17:53.909Z,12.40
2018-10-11T04:20:23.210Z,12.40
2018-10-11T04:22:52.511Z,12.40
2018-10-11T04:25:21.864Z,12.40
2018-10-11T04:27:51.237Z,12.40
2018-10-11T04:30:20.542Z,12.50
2018-10-11T04:32:49.891Z,12.40
2018-10-11T04:35:19.257Z,12.40
2018-10-11T04:37:48.565Z,12.40
2018-10-11T04:40:17.836Z,12.50
2018-10-11T04:42:47.235Z,12.40
2018-10-11T04:45:16.526Z,12.40
2018-10-11T04:47:45.890Z,12.30
2018-10-11T04:50:15.228Z,12.20
2018-10-11T04:52:44.606Z,12.30
2018-10-11T04:55:13.930Z,12.20
2018-10-11T04:57:43.299Z,12.20
2018-10-11T05:00:12.615Z,12.20
2018-10-11T05:02:41.989Z,12.20
2018-10-11T05:05:11.315Z,12.20
2018-10-11T05:07:40.686Z,12.20
2018-10-11T05:10:09.778Z,12.20
2018-10-11T05:12:39.103Z,12.20
2018-10-11T05:15:08.435Z,12.20
2018-10-11T05:17:37.725Z,12.10
2018-10-11T05:20:07.408Z,12.20
2018-10-11T05:22:36.753Z,12.10
2018-10-11T05:25:06.082Z,12.10
2018-10-11T05:27:35.414Z,12.10
2018-10-11T05:30:05.258Z,12.10
2018-10-11T05:32:35.051Z,12.00
2018-10-11T05:35:04.311Z,12.10
2018-10-11T05:37:33.611Z,12.00
2018-10-11T05:40:02.902Z,12.00
2018-10-11T05:42:32.220Z,12.00
2018-10-11T05:45:04.208Z,11.90
2018-10-11T05:47:33.514Z,12.00
2018-10-11T05:50:02.830Z,12.10
2018-10-11T05:52:32.797Z,12.00
2018-10-11T05:55:02.144Z,12.00
2018-10-11T05:57:31.409Z,12.10
2018-10-11T06:00:00.720Z,12.30
2018-10-11T06:02:30.016Z,12.70
2018-10-11T06:04:59.381Z,12.90
2018-10-11T06:07:28.737Z,13.20
2018-10-11T06:09:58.068Z,13.50
2018-10-11T06:12:27.328Z,14.00
2018-10-11T06:14:56.651Z,14.10
2018-10-11T06:17:25.928Z,14.00
2018-10-11T06:19:55.251Z,13.50
2018-10-11T06:22:24.602Z,13.10
2018-10-11T06:24:54.472Z,12.90
2018-10-11T06:27:23.857Z,12.80
2018-10-11T06:29:53.201Z,12.70
2018-10-11T06:32:22.612Z,12.70
2018-10-11T06:34:51.944Z,12.70
2018-10-11T06:37:21.363Z,12.80
2018-10-11T06:39:50.761Z,12.80
2018-10-11T06:42:20.181Z,12.90
2018-10-11T06:44:49.437Z,13.00
2018-10-11T06:47:19.420Z,13.10
2018-10-11T06:49:48.808Z,13.10
2018-10-11T06:52:18.118Z,13.20
2018-10-11T06:54:47.437Z,13.40
2018-10-11T06:57:16.853Z,13.40
2018-10-11T06:59:46.202Z,13.60
2018-10-11T07:02:15.561Z,13.60
2018-10-11T07:04:44.870Z,13.60
2018-10-11T07:07:14.653Z,13.80
2018-10-11T07:09:43.940Z,14.00
2018-10-11T07:12:13.188Z,14.30
2018-10-11T07:14:42.420Z,14.70
2018-10-11T07:17:11.822Z,16.00
2018-10-11T07:19:41.113Z,17.10
2018-10-11T07:22:10.384Z,18.30
2018-10-11T07:24:39.730Z,19.00
2018-10-11T07:27:09.018Z,19.30
2018-10-11T07:29:38.402Z,19.00
2018-10-11T07:32:08.142Z,18.90
2018-10-11T07:34:37.502Z,18.70
2018-10-11T07:37:06.845Z,19.30
2018-10-11T07:39:36.123Z,19.20
2018-10-11T07:42:05.360Z,19.90
2018-10-11T07:44:34.622Z,19.50
2018-10-11T07:47:03.966Z,19.50
2018-10-11T07:49:33.252Z,20.30
2018-10-11T07:52:02.594Z,20.10
2018-10-11T07:54:32.525Z,20.00
2018-10-11T07:57:02.443Z,20.30
2018-10-11T07:59:31.729Z,20.60
2018-10-11T08:02:01.048Z,21.50
2018-10-11T08:04:30.318Z,21.60
2018-10-11T08:06:59.723Z,22.80
2018-10-11T08:09:28.953Z,23.00
2018-10-11T08:11:58.460Z,22.20
2018-10-11T08:14:27.585Z,21.80
2018-10-11T08:16:57.076Z,22.20
2018-10-11T08:19:26.380Z,23.20
2018-10-11T08:21:55.574Z,24.30
2018-10-11T08:24:24.881Z,24.50
2018-10-11T08:26:54.275Z,24.40
2018-10-11T08:29:23.447Z,23.50
2018-10-11T08:31:52.716Z,24.30
2018-10-11T08:34:21.969Z,24.10
2018-10-11T08:36:51.259Z,24.20
2018-10-11T08:39:20.505Z,25.40
2018-10-11T08:41:49.854Z,26.20
2018-10-11T08:44:19.177Z,25.50
2018-10-11T08:46:48.436Z,24.40
2018-10-11T08:49:17.749Z,24.20
2018-10-11T08:51:47.156Z,24.30
2018-10-11T08:54:21.531Z,24.70
2018-10-11T08:56:50.891Z,23.70
2018-10-11T08:59:21.176Z,25.00
2018-10-11T09:01:50.343Z,25.50
2018-10-11T09:04:19.658Z,26.90
2018-10-11T09:06:49.191Z,27.70
2018-10-11T09:09:18.526Z,27.60
2018-10-11T09:11:47.849Z,28.10
2018-10-11T09:14:17.169Z,28.40
2018-10-11T09:16:46.474Z,29.00
2018-10-11T09:19:15.763Z,27.60
2018-10-11T09:21:45.038Z,27.70
2018-10-11T09:24:14.336Z,27.90
2018-10-11T09:26:43.818Z,29.10
2018-10-11T09:29:13.154Z,30.40
2018-10-11T09:31:42.497Z,28.90
2018-10-11T09:34:11.833Z,29.30
2018-10-11T09:36:41.146Z,27.20
2018-10-11T09:39:10.539Z,28.30
2018-10-11T09:41:40.330Z,27.60
2018-10-11T09:44:10.062Z,28.90
2018-10-11T09:46:39.434Z,29.90
2018-10-11T09:49:08.795Z,29.00
2018-10-11T09:51:38.089Z,28.80
2018-10-11T09:54:07.389Z,28.50
2018-10-11T09:57:16.047Z,28.00
2018-10-11T09:59:45.379Z,28.60
2018-10-11T10:02:15.160Z,28.20
2018-10-11T10:04:46.476Z,27.50
2018-10-11T10:07:15.826Z,27.00
2018-10-11T10:09:45.807Z,26.30
2018-10-11T10:12:15.433Z,25.50
2018-10-11T10:14:45.650Z,25.80
2018-10-11T10:17:15.002Z,26.60
2018-10-11T10:19:44.987Z,27.90
2018-10-11T10:22:14.292Z,29.80
2018-10-11T10:24:43.576Z,29.90
2018-10-11T10:27:13.142Z,27.30
2018-10-11T10:29:42.404Z,26.20
2018-10-11T10:32:11.706Z,26.30
2018-10-11T10:34:40.989Z,27.30
2018-10-11T10:37:10.299Z,27.90
2018-10-11T10:39:39.598Z,28.00
2018-10-11T10:42:08.925Z,29.20
2018-10-11T10:44:38.188Z,29.40
2018-10-11T10:47:07.497Z,28.40
2018-10-11T10:49:36.792Z,28.60
2018-10-11T10:52:06.126Z,28.80
2018-10-11T10:54:36.175Z,29.20
2018-10-11T10:57:06.221Z,28.90
2018-10-11T10:59:35.569Z,28.80
2018-10-11T11:02:04.890Z,28.40
2018-10-11T11:04:34.324Z,27.70
2018-10-11T11:07:03.621Z,28.20
2018-10-11T11:09:32.871Z,29.90
2018-10-11T11:12:02.207Z,30.60
2018-10-11T11:14:31.549Z,29.60
2018-10-11T11:17:00.949Z,29.60
2018-10-11T11:19:30.253Z,30.50
2018-10-11T11:21:59.527Z,30.60
2018-10-11T11:24:28.794Z,31.40
2018-10-11T11:26:58.043Z,30.40
2018-10-11T11:29:27.297Z,29.40
2018-10-11T11:31:56.546Z,28.90
2018-10-11T11:34:25.833Z,30.10
2018-10-11T11:36:55.119Z,31.80
2018-10-11T11:39:24.384Z,30.90
2018-10-11T11:41:53.655Z,29.70
2018-10-11T11:44:22.930Z,31.50
2018-10-11T11:46:52.171Z,32.10
2018-10-11T11:49:21.436Z,31.30
2018-10-11T11:51:50.708Z,31.20
2018-10-11T11:54:21.302Z,30.50
2018-10-11T11:56:51.504Z,30.30
2018-10-11T11:59:20.841Z,30.50
2018-10-11T12:01:50.291Z,30.90
2018-10-11T12:04:19.591Z,30.80
2018-10-11T12:06:48.891Z,30.50
2018-10-11T12:09:18.263Z,30.50
2018-10-11T12:11:47.587Z,29.60
2018-10-11T12:14:16.907Z,28.80
2018-10-11T12:16:46.373Z,29.10
2018-10-11T12:19:15.694Z,30.20
2018-10-11T12:21:45.006Z,31.60
2018-10-11T12:24:14.335Z,31.40
2018-10-11T12:26:43.653Z,32.40
2018-10-11T12:29:12.993Z,32.70
2018-10-11T12:31:42.366Z,31.70
2018-10-11T12:34:11.685Z,31.70
2018-10-11T12:36:41.007Z,31.60
2018-10-11T12:39:10.380Z,31.00
2018-10-11T12:41:39.876Z,31.20
2018-10-11T12:44:09.218Z,31.10
2018-10-11T12:46:42.485Z,30.30
2018-10-11T12:49:07.932Z,29.90
2018-10-11T12:51:37.377Z,29.20
2018-10-11T12:54:06.981Z,29.60
2018-10-11T12:56:36.325Z,29.00
2018-10-11T12:59:05.778Z,28.40
2018-10-11T13:01:35.101Z,28.00
2018-10-11T13:04:04.358Z,27.80
2018-10-11T13:06:33.649Z,27.50
2018-10-11T13:09:02.977Z,27.30
2018-10-11T13:11:32.346Z,27.10
2018-10-11T13:14:01.554Z,26.60
2018-10-11T13:16:30.926Z,26.40
2018-10-11T13:19:00.174Z,26.20
2018-10-11T13:21:29.550Z,25.80
2018-10-11T13:23:58.821Z,25.80
2018-10-11T13:26:28.137Z,25.50
2018-10-11T13:28:57.449Z,25.10
2018-10-11T13:31:26.704Z,25.10
2018-10-11T13:33:55.982Z,25.10
2018-10-11T13:36:25.272Z,24.80
2018-10-11T13:38:54.496Z,24.30
2018-10-11T13:41:23.923Z,24.00
2018-10-11T13:43:53.191Z,24.20
2018-10-11T13:46:22.577Z,24.00
2018-10-11T13:48:51.836Z,24.00
2018-10-11T13:51:21.180Z,23.90
2018-10-11T13:53:57.155Z,23.70
2018-10-11T13:56:19.733Z,23.70
2018-10-11T13:58:49.112Z,23.70
2018-10-11T14:01:18.386Z,23.70
2018-10-11T14:03:48.002Z,23.70
2018-10-11T14:06:18.213Z,23.60
2018-10-11T14:08:47.541Z,23.60
2018-10-11T14:11:16.811Z,23.60
2018-10-11T14:13:46.096Z,23.60
2018-10-11T14:16:15.407Z,23.50
2018-10-11T14:18:44.669Z,23.50
2018-10-11T14:21:13.920Z,23.40
2018-10-11T14:23:43.279Z,23.20
2018-10-11T14:26:12.457Z,23.40
2018-10-11T14:28:41.717Z,23.40
2018-10-11T14:31:10.961Z,23.30
2018-10-11T14:33:40.235Z,23.20
2018-10-11T14:36:09.509Z,23.20
2018-10-11T14:38:38.766Z,23.10
2018-10-11T14:41:08.029Z,23.10
2018-10-11T14:43:37.352Z,23.10
2018-10-11T14:46:06.981Z,23.00
2018-10-11T14:48:36.291Z,23.00
2018-10-11T14:51:05.570Z,22.90
2018-10-11T14:53:34.957Z,22.90
2018-10-11T14:56:04.235Z,22.90
2018-10-11T14:58:33.582Z,22.80
2018-10-11T15:01:03.222Z,22.90
2018-10-11T15:03:32.565Z,22.90
2018-10-11T15:06:01.871Z,22.90
2018-10-11T15:08:31.241Z,22.90
2018-10-11T15:11:00.867Z,22.90
2018-10-11T15:13:30.205Z,22.90
2018-10-11T15:15:59.657Z,22.80
2018-10-11T15:18:28.943Z,22.80
2018-10-11T15:20:58.280Z,22.70
2018-10-11T15:23:27.546Z,22.70
2018-10-11T15:25:56.963Z,22.60
2018-10-11T15:28:26.277Z,22.60
2018-10-11T15:30:55.607Z,22.50
2018-10-11T15:33:24.893Z,22.40
2018-10-11T15:35:54.228Z,22.40
2018-10-11T15:38:23.535Z,22.30
2018-10-11T15:40:52.869Z,22.20
2018-10-11T15:43:22.170Z,22.10
2018-10-11T15:45:51.472Z,22.10
2018-10-11T15:48:20.753Z,22.10
2018-10-11T15:50:50.063Z,22.00
2018-10-11T15:53:19.624Z,21.90
2018-10-11T15:55:48.994Z,21.90
2018-10-11T15:58:18.358Z,21.90
2018-10-11T16:00:47.696Z,21.80
2018-10-11T16:03:17.040Z,21.60
2018-10-11T16:05:46.464Z,21.30
2018-10-11T16:08:15.779Z,21.10
2018-10-11T16:10:45.120Z,21.00
2018-10-11T16:13:14.447Z,20.70
2018-10-11T16:15:43.814Z,20.40
2018-10-11T16:18:13.110Z,20.10
2018-10-11T16:20:42.439Z,19.90
2018-10-11T16:23:11.763Z,19.70
2018-10-11T16:25:41.196Z,19.50
2018-10-11T16:28:10.503Z,19.60
2018-10-11T16:30:39.848Z,19.50
2018-10-11T16:33:09.222Z,19.50
2018-10-11T16:35:38.553Z,19.40
2018-10-11T16:38:08.139Z,19.20
2018-10-11T16:40:37.494Z,19.20
2018-10-11T16:43:06.772Z,19.00
2018-10-11T16:45:36.076Z,18.90
2018-10-11T16:48:05.401Z,18.80
2018-10-11T16:50:34.683Z,18.70
2018-10-11T16:53:03.983Z,18.80
2018-10-11T16:55:33.679Z,18.90
2018-10-11T16:58:03.126Z,18.70
2018-10-11T17:00:32.571Z,18.70
2018-10-11T17:03:01.882Z,18.70
2018-10-11T17:05:31.178Z,18.50
2018-10-11T17:08:00.552Z,18.60
2018-10-11T17:10:30.015Z,18.70
2018-10-11T17:12:59.288Z,18.60
2018-10-11T17:15:28.535Z,18.70
2018-10-11T17:17:57.785Z,18.70
2018-10-11T17:20:27.004Z,18.60
2018-10-11T17:22:56.267Z,18.70
2018-10-11T17:25:25.537Z,18.60
2018-10-11T17:27:54.829Z,18.30
2018-10-11T17:30:24.065Z,18.30
2018-10-11T17:32:53.346Z,18.40
2018-10-11T17:35:22.629Z,18.30
2018-10-11T17:37:51.903Z,18.30
2018-10-11T17:40:21.161Z,18.50
2018-10-11T17:42:50.430Z,18.60
2018-10-11T17:45:19.726Z,18.70
2018-10-11T17:47:49.005Z,18.60
2018-10-11T17:50:18.324Z,18.40
2018-10-11T17:52:47.609Z,18.20
2018-10-11T17:55:16.985Z,18.40
2018-10-11T17:57:46.217Z,18.40
2018-10-11T18:00:15.525Z,18.40
2018-10-11T18:02:44.765Z,18.40
2018-10-11T18:05:14.222Z,18.20
2018-10-11T18:07:43.569Z,18.20
2018-10-11T18:10:12.925Z,17.90
2018-10-11T18:12:42.245Z,17.90
2018-10-11T18:15:11.550Z,17.90
2018-10-11T18:17:40.815Z,17.80
2018-10-11T18:20:10.146Z,17.60
2018-10-11T18:22:39.451Z,17.50
2018-10-11T18:25:08.848Z,17.40
2018-10-11T18:27:38.163Z,17.10
2018-10-11T18:30:09.663Z,17.20
2018-10-11T18:32:39.063Z,17.30
2018-10-11T18:35:09.058Z,17.30
2018-10-11T18:37:38.392Z,17.30
2018-10-11T18:40:07.698Z,17.10
2018-10-11T18:42:36.986Z,17.10
2018-10-11T18:45:06.687Z,17.10
2018-10-11T18:47:35.975Z,17.20
2018-10-11T18:50:05.302Z,17.30
2018-10-11T18:52:34.581Z,17.40
2018-10-11T18:55:03.934Z,17.60
2018-10-11T18:57:33.278Z,17.70
2018-10-11T19:00:02.592Z,17.50
2018-10-11T19:02:31.869Z,17.50
2018-10-11T19:05:01.157Z,17.40
2018-10-11T19:07:30.485Z,17.50
2018-10-11T19:09:59.842Z,17.50
2018-10-11T19:12:29.120Z,17.70
2018-10-11T19:14:58.355Z,17.50
2018-10-11T19:17:27.678Z,17.50
2018-10-11T19:19:56.946Z,17.40
2018-10-11T19:22:26.333Z,17.30
2018-10-11T19:24:55.634Z,17.30
2018-10-11T19:27:24.913Z,17.00
2018-10-11T19:29:54.293Z,16.70
2018-10-11T19:32:23.594Z,16.70
2018-10-11T19:34:52.901Z,16.80
2018-10-11T19:37:22.311Z,16.90
2018-10-11T19:39:51.717Z,16.80
2018-10-11T19:42:21.017Z,16.70
2018-10-11T19:44:50.289Z,16.60
2018-10-11T19:47:19.595Z,16.60
2018-10-11T19:49:48.847Z,16.60
2018-10-11T19:52:18.247Z,16.50
2018-10-11T19:54:47.566Z,16.40
2018-10-11T19:57:16.897Z,16.30
2018-10-11T19:59:46.229Z,16.20
2018-10-11T20:02:15.504Z,16.20
2018-10-11T20:04:44.804Z,16.20
2018-10-11T20:07:14.134Z,16.30
2018-10-11T20:09:43.446Z,16.30
2018-10-11T20:12:12.774Z,16.30
2018-10-11T20:14:42.050Z,16.10
2018-10-11T20:17:13.513Z,16.00
2018-10-11T20:19:42.768Z,16.00
2018-10-11T20:22:13.119Z,15.90
2018-10-11T20:24:42.690Z,15.90
2018-10-11T20:27:12.029Z,15.90
2018-10-11T20:29:41.330Z,15.90
2018-10-11T20:32:11.010Z,15.70
2018-10-11T20:34:40.318Z,15.70
2018-10-11T20:37:09.646Z,15.80
2018-10-11T20:39:38.932Z,15.80
2018-10-11T20:42:08.279Z,15.60
2018-10-11T20:44:37.570Z,15.60
2018-10-11T20:47:07.052Z,15.50
2018-10-11T20:49:36.370Z,15.40
2018-10-11T20:52:05.691Z,15.50
2018-10-11T20:54:35.094Z,15.40
2018-10-11T20:57:04.413Z,15.40
2018-10-11T20:59:33.732Z,15.50
2018-10-11T21:02:03.054Z,15.50
2018-10-11T21:04:32.460Z,15.40
2018-10-11T21:07:01.805Z,15.30
2018-10-11T21:09:31.157Z,15.20
2018-10-11T21:12:00.470Z,15.20
2018-10-11T21:14:29.758Z,15.20
2018-10-11T21:16:59.027Z,15.30
2018-10-11T21:19:28.268Z,15.30
2018-10-11T21:22:00.701Z,15.30
2018-10-11T21:24:31.629Z,15.30
2018-10-11T21:27:03.209Z,15.40
2018-10-11T21:29:34.761Z,15.50
2018-10-11T21:32:05.958Z,15.50
2018-10-11T21:34:37.317Z,15.50
2018-10-11T21:37:08.363Z,15.50
2018-10-11T21:39:37.654Z,15.50
2018-10-11T21:42:06.945Z,15.30
2018-10-11T21:44:36.284Z,15.30
2018-10-11T21:47:05.558Z,15.40
2018-10-11T21:49:34.796Z,15.30
2018-10-11T21:52:04.086Z,15.30
2018-10-11T21:54:33.349Z,15.30
2018-10-11T21:57:02.646Z,15.50
2018-10-11T21:59:31.869Z,15.60
2018-10-11T22:02:01.139Z,15.50
2018-10-11T22:04:30.381Z,15.40
2018-10-11T22:06:59.657Z,15.30
2018-10-11T22:09:28.950Z,15.20
2018-10-11T22:11:58.226Z,15.20
2018-10-11T22:14:27.787Z,15.20
2018-10-11T22:16:57.347Z,15.30
2018-10-11T22:19:26.638Z,15.30
2018-10-11T22:21:55.903Z,15.30
2018-10-11T22:24:25.138Z,15.40
2018-10-11T22:26:54.583Z,15.40
2018-10-11T22:29:23.850Z,15.40
2018-10-11T22:31:53.332Z,15.50
2018-10-11T22:34:22.587Z,15.60
2018-10-11T22:36:51.919Z,15.60
2018-10-11T22:39:21.138Z,15.50
2018-10-11T22:41:50.455Z,15.40
2018-10-11T22:44:19.719Z,15.30
2018-10-11T22:46:48.997Z,15.30
2018-10-11T22:49:18.241Z,15.40
2018-10-11T22:51:47.492Z,15.40
2018-10-11T22:54:16.733Z,15.40
2018-10-11T22:56:46.162Z,15.40
2018-10-11T22:59:15.426Z,15.30
2018-10-11T23:01:44.829Z,15.40
2018-10-11T23:04:14.089Z,15.60
2018-10-11T23:06:43.421Z,15.50
2018-10-11T23:09:12.730Z,15.60
2018-10-11T23:11:42.038Z,15.40
2018-10-11T23:14:11.301Z,15.30
2018-10-11T23:16:40.749Z,15.20
2018-10-11T23:19:10.040Z,15.20
2018-10-11T23:21:39.299Z,15.20
2018-10-11T23:24:08.588Z,15.10
2018-10-11T23:26:37.857Z,15.10
2018-10-11T23:29:07.140Z,14.90
2018-10-11T23:31:36.413Z,15.00
2018-10-11T23:34:05.690Z,15.10
2018-10-11T23:36:34.969Z,15.20
2018-10-11T23:39:05.832Z,15.10
2018-10-11T23:41:35.125Z,15.10
2018-10-11T23:44:04.423Z,15.10
2018-10-11T23:46:33.780Z,15.20
2018-10-11T23:49:03.159Z,15.20
2018-10-11T23:51:32.473Z,15.10
2018-10-11T23:54:01.757Z,15.20
2018-10-11T23:56:31.046Z,15.20
2018-10-11T23:59:00.370Z,15.20
